createdAt,value
2023-01-05T00:00:05.463Z,998
2023-01-05T00:03:05.300Z,998
2023-01-05T00:06:05.198Z,998
2023-01-05T00:09:05.332Z,998
2023-01-05T00:12:05.317Z,998
2023-01-05T00:15:05.303Z,998
2023-01-05T00:18:05.243Z,998
2023-01-05T00:21:05.222Z,998
2023-01-05T00:24:05.347Z,998
2023-01-05T00:27:05.287Z,998
2023-01-05T00:30:05.620Z,998
2023-01-05T00:33:05.201Z,998
2023-01-05T00:36:05.213Z,998
2023-01-05T00:39:05.215Z,998
2023-01-05T00:42:05.139Z,998
2023-01-05T00:45:05.251Z,998
2023-01-05T00:48:05.566Z,998
2023-01-05T00:51:05.270Z,998
2023-01-05T00:54:05.199Z,998
2023-01-05T00:57:05.270Z,998
2023-01-05T01:00:05.331Z,998
2023-01-05T01:03:05.508Z,998
2023-01-05T01:06:05.196Z,998
2023-01-05T01:09:05.303Z,998
2023-01-05T01:12:05.240Z,998
2023-01-05T01:15:05.303Z,998
2023-01-05T01:18:05.368Z,998
2023-01-05T01:21:05.264Z,998
2023-01-05T01:24:05.268Z,998
2023-01-05T01:27:05.266Z,998
2023-01-05T01:30:05.333Z,998
2023-01-05T01:33:05.322Z,998
2023-01-05T01:36:05.279Z,998
2023-01-05T01:39:05.290Z,998
2023-01-05T01:42:05.241Z,999
2023-01-05T01:45:05.374Z,999
2023-01-05T01:48:05.285Z,999
2023-01-05T01:51:12.702Z,998
2023-01-05T01:54:05.315Z,998
2023-01-05T01:57:05.269Z,998
2023-01-05T02:00:05.396Z,998
2023-01-05T02:03:05.284Z,998
2023-01-05T02:06:05.304Z,998
2023-01-05T02:09:05.415Z,998
2023-01-05T02:12:05.215Z,998
2023-01-05T02:15:05.217Z,998
2023-01-05T02:18:05.212Z,998
2023-01-05T02:21:05.279Z,998
2023-01-05T02:24:05.295Z,998
2023-01-05T02:27:05.270Z,998
2023-01-05T02:30:05.252Z,998
2023-01-05T02:33:05.242Z,998
2023-01-05T02:36:05.276Z,998
2023-01-05T02:39:05.246Z,998
2023-01-05T02:42:05.295Z,998
2023-01-05T02:45:05.313Z,998
2023-01-05T02:48:05.318Z,998
2023-01-05T02:51:05.313Z,998
2023-01-05T02:54:05.312Z,998
2023-01-05T02:57:05.254Z,998
2023-01-05T03:00:05.413Z,998
2023-01-05T03:03:05.975Z,998
2023-01-05T03:06:05.297Z,998
2023-01-05T03:09:05.249Z,998
2023-01-05T03:12:05.250Z,998
2023-01-05T03:15:05.316Z,998
2023-01-05T03:18:05.374Z,998
2023-01-05T03:21:05.267Z,998
2023-01-05T03:24:05.338Z,998
2023-01-05T03:27:05.263Z,998
2023-01-05T03:30:05.401Z,998
2023-01-05T03:33:05.211Z,998
2023-01-05T03:36:05.320Z,998
2023-01-05T03:39:05.206Z,998
2023-01-05T03:42:05.402Z,998
2023-01-05T03:45:05.255Z,998
2023-01-05T03:48:05.266Z,998
2023-01-05T03:51:05.285Z,998
2023-01-05T03:54:05.282Z,998
2023-01-05T03:57:05.235Z,998
2023-01-05T04:00:05.276Z,998
2023-01-05T04:03:06.165Z,998
2023-01-05T04:06:05.189Z,998
2023-01-05T04:09:05.242Z,998
2023-01-05T04:12:05.294Z,998
2023-01-05T04:15:05.186Z,998
2023-01-05T04:18:05.219Z,998
2023-01-05T04:21:05.211Z,998
2023-01-05T04:24:05.276Z,998
2023-01-05T04:27:05.251Z,999
2023-01-05T04:30:05.318Z,999
2023-01-05T04:33:05.238Z,999
2023-01-05T04:36:05.257Z,999
2023-01-05T04:39:05.255Z,999
2023-01-05T04:42:05.308Z,999
2023-01-05T04:45:05.261Z,999
2023-01-05T04:48:05.291Z,999
2023-01-05T04:51:05.305Z,999
2023-01-05T04:54:05.355Z,999
2023-01-05T04:57:05.312Z,999
2023-01-05T05:00:05.470Z,999
2023-01-05T05:03:05.867Z,999
2023-01-05T05:06:05.313Z,999
2023-01-05T05:09:05.241Z,999
2023-01-05T05:12:05.319Z,999
2023-01-05T05:15:05.299Z,999
2023-01-05T05:18:13.766Z,999
2023-01-05T05:21:05.239Z,999
2023-01-05T05:24:05.212Z,999
2023-01-05T05:27:05.223Z,999
2023-01-05T05:30:05.351Z,999
2023-01-05T05:33:05.242Z,999
2023-01-05T05:36:05.344Z,999
2023-01-05T05:39:05.264Z,999
2023-01-05T05:42:05.228Z,999
2023-01-05T05:45:05.246Z,999
2023-01-05T05:48:05.408Z,999
2023-01-05T05:51:05.345Z,999
2023-01-05T05:54:05.286Z,999
2023-01-05T05:57:05.333Z,999
2023-01-05T06:00:05.461Z,999
2023-01-05T06:03:05.819Z,999
2023-01-05T06:06:05.320Z,999
2023-01-05T06:09:05.247Z,999
2023-01-05T06:12:05.470Z,999
2023-01-05T06:15:05.284Z,1000
2023-01-05T06:18:05.240Z,1000
2023-01-05T06:21:06.705Z,1000
2023-01-05T06:24:05.328Z,1000
2023-01-05T06:27:05.355Z,1000
2023-01-05T06:30:05.400Z,1000
2023-01-05T06:33:05.269Z,1000
2023-01-05T06:36:05.260Z,1000
2023-01-05T06:39:05.367Z,1000
2023-01-05T06:42:05.245Z,1000
2023-01-05T06:45:05.259Z,1000
2023-01-05T06:48:05.300Z,1000
2023-01-05T06:51:05.253Z,1000
2023-01-05T06:54:05.233Z,1000
2023-01-05T06:57:05.261Z,1000
2023-01-05T07:00:05.379Z,1000
2023-01-05T07:03:05.333Z,1000
2023-01-05T07:06:07.665Z,1000
2023-01-05T07:09:05.237Z,1000
2023-01-05T07:12:05.199Z,1001
2023-01-05T07:15:05.196Z,1001
2023-01-05T07:18:05.253Z,1001
2023-01-05T07:21:05.227Z,1001
2023-01-05T07:24:05.167Z,1000
2023-01-05T07:27:14.242Z,1000
2023-01-05T07:30:05.271Z,1000
2023-01-05T07:33:05.306Z,1000
2023-01-05T07:36:05.297Z,1001
2023-01-05T07:39:05.297Z,1001
2023-01-05T07:42:05.293Z,1001
2023-01-05T07:45:05.366Z,1001
2023-01-05T07:48:05.284Z,1001
2023-01-05T07:51:05.278Z,1001
2023-01-05T07:54:05.326Z,1001
2023-01-05T07:57:05.336Z,1001
2023-01-05T08:00:05.462Z,1001
2023-01-05T08:03:05.294Z,1001
2023-01-05T08:06:05.298Z,1001
2023-01-05T08:09:05.290Z,1002
2023-01-05T08:12:05.332Z,1002
2023-01-05T08:15:05.333Z,1001
2023-01-05T08:18:05.246Z,1001
2023-01-05T08:21:05.367Z,1001
2023-01-05T08:24:05.264Z,1001
2023-01-05T08:27:05.748Z,1001
2023-01-05T08:30:05.343Z,1002
2023-01-05T08:33:05.290Z,1002
2023-01-05T08:36:05.312Z,1002
2023-01-05T08:39:05.244Z,1002
2023-01-05T08:42:07.604Z,1002
2023-01-05T08:45:05.296Z,1002
2023-01-05T08:48:05.294Z,1002
2023-01-05T08:51:05.279Z,1002
2023-01-05T08:54:05.247Z,1002
2023-01-05T08:57:05.231Z,1002
2023-01-05T09:00:05.459Z,1002
2023-01-05T09:03:05.976Z,1002
2023-01-05T09:06:05.273Z,1002
2023-01-05T09:09:05.270Z,1002
2023-01-05T09:12:05.345Z,1002
2023-01-05T09:15:05.255Z,1002
2023-01-05T09:18:05.441Z,1002
2023-01-05T09:21:05.238Z,1002
2023-01-05T09:24:05.245Z,1002
2023-01-05T09:27:05.262Z,1002
2023-01-05T09:30:05.390Z,1002
2023-01-05T09:33:05.344Z,1002
2023-01-05T09:36:05.315Z,1002
2023-01-05T09:39:05.298Z,1002
2023-01-05T09:42:05.323Z,1002
2023-01-05T09:45:05.368Z,1003
2023-01-05T09:48:05.383Z,1003
2023-01-05T09:51:05.231Z,1003
2023-01-05T09:54:05.280Z,1003
2023-01-05T09:57:15.475Z,1003
2023-01-05T10:00:05.371Z,1003
2023-01-05T10:03:05.462Z,1003
2023-01-05T10:06:05.302Z,1003
2023-01-05T10:09:05.320Z,1003
2023-01-05T10:12:05.293Z,1003
2023-01-05T10:15:05.283Z,1003
2023-01-05T10:18:05.258Z,1003
2023-01-05T10:21:05.281Z,1003
2023-01-05T10:24:05.302Z,1003
2023-01-05T10:27:31.026Z,1003
2023-01-05T10:30:05.391Z,1003
2023-01-05T10:33:51.842Z,1003
2023-01-05T10:36:19.314Z,1003
2023-01-05T10:39:05.358Z,1003
2023-01-05T10:42:05.365Z,1003
2023-01-05T10:45:05.338Z,1004
2023-01-05T10:48:05.320Z,1004
2023-01-05T10:51:05.348Z,1003
2023-01-05T10:54:05.266Z,1003
2023-01-05T10:57:05.307Z,1003
2023-01-05T11:00:05.728Z,1003
2023-01-05T11:03:05.363Z,1003
2023-01-05T11:06:05.282Z,1003
2023-01-05T11:09:05.327Z,1003
2023-01-05T11:12:05.290Z,1003
2023-01-05T11:15:05.322Z,1003
2023-01-05T11:18:05.287Z,1004
2023-01-05T11:21:05.277Z,1004
2023-01-05T11:24:05.213Z,1004
2023-01-05T11:27:05.249Z,1004
2023-01-05T11:30:05.562Z,1004
2023-01-05T11:33:05.308Z,1004
2023-01-05T11:36:05.261Z,1004
2023-01-05T11:39:05.373Z,1004
2023-01-05T11:42:05.303Z,1004
2023-01-05T11:45:05.353Z,1004
2023-01-05T11:48:05.255Z,1004
2023-01-05T11:51:05.320Z,1004
2023-01-05T11:54:05.229Z,1004
2023-01-05T11:57:05.296Z,1004
2023-01-05T12:00:05.333Z,1004
2023-01-05T12:03:05.652Z,1004
2023-01-05T12:06:05.268Z,1004
2023-01-05T12:09:05.681Z,1004
2023-01-05T12:12:05.304Z,1004
2023-01-05T12:15:05.279Z,1004
2023-01-05T12:18:05.298Z,1004
2023-01-05T12:21:05.282Z,1004
2023-01-05T12:24:05.280Z,1004
2023-01-05T12:27:05.265Z,1004
2023-01-05T12:36:05.341Z,1004
2023-01-05T12:39:05.414Z,1004
2023-01-05T12:42:09.692Z,1005
2023-01-05T12:45:05.270Z,1004
2023-01-05T12:48:05.316Z,1004
2023-01-05T12:51:05.279Z,1004
2023-01-05T12:54:06.172Z,1004
2023-01-05T12:57:05.246Z,1004
2023-01-05T13:00:05.400Z,1004
2023-01-05T13:03:05.570Z,1004
2023-01-05T13:06:05.243Z,1005
2023-01-05T13:09:05.344Z,1005
2023-01-05T13:12:05.259Z,1005
2023-01-05T13:15:05.304Z,1005
2023-01-05T13:18:05.283Z,1005
2023-01-05T13:21:09.672Z,1005
2023-01-05T13:24:05.350Z,1005
2023-01-05T13:27:05.377Z,1005
2023-01-05T13:30:05.301Z,1005
2023-01-05T13:33:05.251Z,1005
2023-01-05T13:36:05.238Z,1005
2023-01-05T13:39:05.325Z,1005
2023-01-05T13:42:05.282Z,1005
2023-01-05T13:45:05.247Z,1005
2023-01-05T13:48:13.033Z,1005
2023-01-05T13:51:05.274Z,1005
2023-01-05T13:54:05.324Z,1005
2023-01-05T13:57:05.276Z,1005
2023-01-05T14:00:14.903Z,1005
2023-01-05T14:03:05.290Z,1005
2023-01-05T14:06:05.295Z,1005
2023-01-05T14:09:05.301Z,1005
2023-01-05T14:12:05.510Z,1005
2023-01-05T14:15:05.766Z,1005
2023-01-05T14:18:05.337Z,1005
2023-01-05T14:21:05.378Z,1005
2023-01-05T14:24:05.267Z,1005
2023-01-05T14:27:05.237Z,1005
2023-01-05T14:30:05.339Z,1006
2023-01-05T14:33:05.270Z,1006
2023-01-05T14:36:05.334Z,1006
2023-01-05T14:39:05.272Z,1006
2023-01-05T14:42:05.325Z,1006
2023-01-05T14:45:05.323Z,1006
2023-01-05T14:48:05.395Z,1006
2023-01-05T14:51:05.199Z,1006
2023-01-05T14:54:05.292Z,1006
2023-01-05T14:57:07.649Z,1006
2023-01-05T15:00:05.316Z,1006
2023-01-05T15:03:05.339Z,1006
2023-01-05T15:06:05.277Z,1006
2023-01-05T15:09:05.299Z,1006
2023-01-05T15:12:05.907Z,1006
2023-01-05T15:15:05.300Z,1006
2023-01-05T15:18:05.361Z,1006
2023-01-05T15:21:05.371Z,1006
2023-01-05T15:24:05.313Z,1006
2023-01-05T15:27:05.206Z,1007
2023-01-05T15:30:05.334Z,1007
2023-01-05T15:33:05.251Z,1007
2023-01-05T15:36:05.300Z,1007
2023-01-05T15:39:05.285Z,1007
2023-01-05T15:42:05.342Z,1007
2023-01-05T15:45:05.301Z,1007
2023-01-05T15:48:06.725Z,1007
2023-01-05T15:51:05.252Z,1007
2023-01-05T15:54:05.520Z,1007
2023-01-05T15:57:05.338Z,1007
2023-01-05T16:00:05.294Z,1007
2023-01-05T16:03:05.269Z,1007
2023-01-05T16:06:05.314Z,1007
2023-01-05T16:09:05.200Z,1007
2023-01-05T16:12:05.292Z,1007
2023-01-05T16:15:05.259Z,1007
2023-01-05T16:18:05.288Z,1007
2023-01-05T16:21:05.285Z,1007
2023-01-05T16:24:05.216Z,1007
2023-01-05T16:27:05.256Z,1007
2023-01-05T16:30:05.297Z,1007
2023-01-05T16:33:05.219Z,1007
2023-01-05T16:36:05.247Z,1007
2023-01-05T16:39:05.274Z,1007
2023-01-05T16:42:05.256Z,1007
2023-01-05T16:45:05.243Z,1007
2023-01-05T16:48:05.315Z,1007
2023-01-05T16:51:05.214Z,1007
2023-01-05T16:54:05.239Z,1007
2023-01-05T16:57:05.211Z,1007
2023-01-05T17:00:05.388Z,1007
2023-01-05T17:03:05.337Z,1007
2023-01-05T17:06:05.232Z,1007
2023-01-05T17:09:05.271Z,1007
2023-01-05T17:12:05.262Z,1007
2023-01-05T17:15:05.336Z,1007
2023-01-05T17:18:05.279Z,1008
2023-01-05T17:21:05.224Z,1008
2023-01-05T17:24:05.291Z,1008
2023-01-05T17:27:05.250Z,1008
2023-01-05T17:30:05.353Z,1007
2023-01-05T17:33:05.282Z,1007
2023-01-05T17:36:05.287Z,1007
2023-01-05T17:39:05.256Z,1007
2023-01-05T17:42:05.239Z,1007
2023-01-05T17:45:05.328Z,1007
2023-01-05T17:48:05.291Z,1007
2023-01-05T17:51:05.177Z,1007
2023-01-05T17:54:05.280Z,1007
2023-01-05T17:57:05.236Z,1007
2023-01-05T18:00:05.299Z,1007
2023-01-05T18:03:05.222Z,1007
2023-01-05T18:06:05.403Z,1007
2023-01-05T18:09:05.299Z,1008
2023-01-05T18:12:05.299Z,1008
2023-01-05T18:15:05.187Z,1008
2023-01-05T18:18:05.403Z,1008
2023-01-05T18:21:05.261Z,1008
2023-01-05T18:24:05.250Z,1008
2023-01-05T18:27:05.198Z,1008
2023-01-05T18:30:05.388Z,1008
2023-01-05T18:33:05.282Z,1008
2023-01-05T18:39:05.297Z,1008
2023-01-05T18:42:05.247Z,1008
2023-01-05T18:45:38.856Z,1008
2023-01-05T18:48:05.232Z,1008
2023-01-05T18:51:05.278Z,1008
2023-01-05T18:54:05.256Z,1008
2023-01-05T18:57:05.446Z,1008
2023-01-05T19:00:05.234Z,1008
2023-01-05T19:03:05.282Z,1008
2023-01-05T19:06:05.236Z,1008
2023-01-05T19:09:05.251Z,1008
2023-01-05T19:12:05.282Z,1008
2023-01-05T19:15:05.301Z,1008
2023-01-05T19:18:05.446Z,1008
2023-01-05T19:21:05.214Z,1008
2023-01-05T19:24:05.240Z,1008
2023-01-05T19:27:05.218Z,1008
2023-01-05T19:30:05.237Z,1008
2023-01-05T19:33:05.335Z,1008
2023-01-05T19:36:05.236Z,1008
2023-01-05T19:39:05.236Z,1008
2023-01-05T19:42:05.293Z,1008
2023-01-05T19:45:05.210Z,1008
2023-01-05T19:48:05.239Z,1008
2023-01-05T19:51:05.229Z,1008
2023-01-05T19:54:05.249Z,1008
2023-01-05T19:57:05.227Z,1008
2023-01-05T20:00:05.338Z,1008
2023-01-05T20:03:05.582Z,1008
2023-01-05T20:06:05.268Z,1008
2023-01-05T20:09:05.281Z,1008
2023-01-05T20:12:19.771Z,1008
2023-01-05T20:15:05.235Z,1008
2023-01-05T20:18:05.264Z,1008
2023-01-05T20:21:05.248Z,1008
2023-01-05T20:24:05.274Z,1008
2023-01-05T20:27:05.236Z,1008
2023-01-05T20:30:05.307Z,1008
2023-01-05T20:33:05.281Z,1008
2023-01-05T20:36:05.279Z,1008
2023-01-05T20:39:05.235Z,1008
2023-01-05T20:42:05.269Z,1008
2023-01-05T20:45:05.252Z,1008
2023-01-05T20:48:05.211Z,1008
2023-01-05T20:51:05.308Z,1008
2023-01-05T20:54:05.245Z,1008
2023-01-05T20:57:05.241Z,1008
2023-01-05T21:00:05.320Z,1008
2023-01-05T21:03:05.505Z,1008
2023-01-05T21:06:05.245Z,1008
2023-01-05T21:09:05.355Z,1008
2023-01-05T21:12:05.215Z,1008
2023-01-05T21:15:05.327Z,1008
2023-01-05T21:18:05.272Z,1008
2023-01-05T21:21:05.306Z,1008
2023-01-05T21:24:05.255Z,1008
2023-01-05T21:27:05.261Z,1008
2023-01-05T21:30:05.282Z,1008
2023-01-05T21:33:05.204Z,1008
2023-01-05T21:36:05.439Z,1008
2023-01-05T21:39:08.737Z,1008
2023-01-05T21:42:05.536Z,1008
2023-01-05T21:45:05.414Z,1008
2023-01-05T21:48:05.219Z,1008
2023-01-05T21:51:05.219Z,1008
2023-01-05T21:54:06.846Z,1008
2023-01-05T21:57:05.436Z,1008
2023-01-05T22:00:05.306Z,1008
2023-01-05T22:03:05.347Z,1008
2023-01-05T22:06:05.258Z,1008
2023-01-05T22:09:05.234Z,1007
2023-01-05T22:12:05.303Z,1007
2023-01-05T22:15:05.344Z,1007
2023-01-05T22:18:05.263Z,1007
2023-01-05T22:21:05.244Z,1007
2023-01-05T22:24:05.333Z,1007
2023-01-05T22:27:05.248Z,1007
2023-01-05T22:30:05.366Z,1007
2023-01-05T22:33:05.255Z,1007
2023-01-05T22:36:05.202Z,1007
2023-01-05T22:39:05.390Z,1007
2023-01-05T22:42:05.254Z,1007
2023-01-05T22:45:05.317Z,1007
2023-01-05T22:48:05.272Z,1007
2023-01-05T22:51:05.942Z,1007
2023-01-05T22:54:05.261Z,1007
2023-01-05T22:57:05.294Z,1007
2023-01-05T23:00:06.080Z,1007
2023-01-05T23:03:05.307Z,1007
2023-01-05T23:06:05.239Z,1007
2023-01-05T23:09:05.309Z,1007
2023-01-05T23:12:05.224Z,1007
2023-01-05T23:15:05.263Z,1007
2023-01-05T23:18:05.244Z,1007
2023-01-05T23:21:07.240Z,1007
2023-01-05T23:24:05.235Z,1007
2023-01-05T23:27:05.251Z,1007
2023-01-05T23:30:05.239Z,1007
2023-01-05T23:33:05.264Z,1007
2023-01-05T23:36:05.229Z,1007
2023-01-05T23:39:05.223Z,1007
2023-01-05T23:42:05.252Z,1007
2023-01-05T23:45:05.209Z,1007
2023-01-05T23:48:05.262Z,1007
2023-01-05T23:51:05.233Z,1007
2023-01-05T23:54:05.277Z,1007
2023-01-05T23:57:05.249Z,1007
